首页
METAR-TAF:

METAR-TAF

机场 :

堪薩斯城, 密蘇里州, 美国

纬度: 39-17-50N, 经度: 094-43-50W, 海拔: 312米

当前天气观测

该预报发布于28分钟前的16:53 UTC
风速13节,风向,有时为23节阵风
温度 27°C
湿度 79%
气压 1017 hPa
能見度: 16.1公里
少量云层高于7000英尺
散云层高于12000英尺

METAR: KMCI 081653Z 18013G23KT 10SM FEW070 SCT120 27/23 A3002 RMK AO2 SLP152 T02720228 $

时间: 12:21 (17:21 UTC)

预报

该预报发布于6小时和1分钟前的11:20 UTC
预报有效从08日的 12点(UTC)到 09日的 12点(UTC)
风速13节,风向东南
能見度: 10公里
散云层高于2500英尺
多云层高于10000英尺
从 08日的 1500点(UTC)
风速13节,风向,有时为23节阵风
能見度: 10公里
散云层高于3000英尺
从 09日的 0100点(UTC)
风速10节,风向南转南东
能見度: 10公里
少量云层高于25000英尺

TAF: KMCI 081120Z 0812/0912 13013KT P6SM SCT025 BKN100 FM081500 17013G23KT P6SM SCT030 FM090100 16010KT P6SM FEW250

超过4000个机场的气象观测和天气预报(METAR&TAF报告)。

可查询的气象台以黄色和红色小点在地图上表示。

将鼠标移到小点上方,可查看气象台名称。

然后点击查看天气观测和预报。

如需切换地图:点击带黑十字的绿色按钮放大地图;点击带横线的绿色按钮缩小地图;或者点击绿色箭头查看邻近地区的地图。


METAR-TAF: